createdAt,value
2023-05-14T00:00:06.756Z,14.30
2023-05-14T00:02:33.750Z,14.20
2023-05-14T00:05:00.611Z,14.20
2023-05-14T00:07:30.711Z,14.20
2023-05-14T00:09:58.594Z,14.10
2023-05-14T00:12:26.479Z,14.10
2023-05-14T00:14:53.927Z,14.00
2023-05-14T00:17:20.743Z,13.90
2023-05-14T00:19:47.649Z,13.90
2023-05-14T00:22:14.391Z,13.90
2023-05-14T00:24:41.232Z,13.90
2023-05-14T00:27:08.099Z,13.80
2023-05-14T00:29:35.051Z,13.80
2023-05-14T00:32:03.507Z,13.80
2023-05-14T00:34:30.468Z,13.80
2023-05-14T00:36:57.192Z,13.70
2023-05-14T00:39:23.978Z,13.70
2023-05-14T00:41:50.767Z,13.60
2023-05-14T00:44:17.540Z,13.60
2023-05-14T00:46:44.626Z,13.60
2023-05-14T00:49:11.491Z,13.50
2023-05-14T00:51:38.725Z,13.50
2023-05-14T00:54:06.410Z,13.40
2023-05-14T00:56:34.472Z,13.40
2023-05-14T00:59:01.821Z,13.30
2023-05-14T01:01:28.748Z,13.30
2023-05-14T01:03:57.832Z,13.30
2023-05-14T01:06:56.957Z,13.30
2023-05-14T01:09:36.523Z,13.30
2023-05-14T01:12:11.467Z,13.30
2023-05-14T01:14:55.612Z,13.30
2023-05-14T01:17:25.402Z,13.20
2023-05-14T01:19:52.379Z,13.20
2023-05-14T01:22:19.136Z,13.10
2023-05-14T01:24:45.861Z,13.00
2023-05-14T01:27:23.779Z,13.10
2023-05-14T01:29:59.478Z,13.00
2023-05-14T01:32:27.215Z,13.00
2023-05-14T01:34:55.910Z,13.00
2023-05-14T01:37:22.838Z,13.00
2023-05-14T01:39:50.971Z,13.00
2023-05-14T01:42:17.723Z,12.90
2023-05-14T01:44:45.001Z,12.90
2023-05-14T01:47:11.742Z,12.90
2023-05-14T01:49:38.484Z,12.80
2023-05-14T01:52:05.675Z,12.80
2023-05-14T01:54:32.373Z,12.80
2023-05-14T01:56:59.221Z,12.80
2023-05-14T01:59:25.981Z,12.80
2023-05-14T02:01:52.821Z,12.80
2023-05-14T02:04:20.829Z,12.80
2023-05-14T02:06:47.620Z,12.70
2023-05-14T02:09:14.359Z,12.70
2023-05-14T02:11:41.071Z,12.70
2023-05-14T02:14:07.830Z,12.70
2023-05-14T02:16:34.663Z,12.70
2023-05-14T02:19:01.593Z,12.70
2023-05-14T02:21:28.368Z,12.60
2023-05-14T02:23:56.146Z,12.60
2023-05-14T02:26:22.868Z,12.60
2023-05-14T02:28:49.733Z,12.60
2023-05-14T02:31:19.422Z,12.50
2023-05-14T02:33:46.249Z,12.50
2023-05-14T02:36:13.239Z,12.50
2023-05-14T02:38:40.061Z,12.50
2023-05-14T02:41:06.916Z,12.50
2023-05-14T02:43:33.678Z,12.50
2023-05-14T02:46:00.572Z,12.50
2023-05-14T02:48:27.345Z,12.50
2023-05-14T02:50:54.150Z,12.50
2023-05-14T02:53:20.905Z,12.40
2023-05-14T02:55:47.685Z,12.40
2023-05-14T02:58:15.027Z,12.40
2023-05-14T03:00:41.775Z,12.40
2023-05-14T03:03:08.868Z,12.30
2023-05-14T03:05:36.205Z,12.30
2023-05-14T03:08:02.987Z,12.30
2023-05-14T03:10:29.702Z,12.40
2023-05-14T03:12:56.504Z,12.30
2023-05-14T03:15:23.292Z,12.30
2023-05-14T03:17:50.083Z,12.30
2023-05-14T03:20:17.042Z,12.30
2023-05-14T03:22:43.757Z,12.30
2023-05-14T03:25:10.554Z,12.30
2023-05-14T03:27:37.328Z,12.30
2023-05-14T03:30:04.830Z,12.30
2023-05-14T03:32:31.663Z,12.30
2023-05-14T03:34:58.449Z,12.30
2023-05-14T03:37:25.203Z,12.30
2023-05-14T03:39:51.952Z,12.20
2023-05-14T03:42:18.670Z,12.20
2023-05-14T03:44:45.397Z,12.20
2023-05-14T03:47:12.359Z,12.20
2023-05-14T03:49:39.144Z,12.30
2023-05-14T03:52:05.965Z,12.20
2023-05-14T03:54:32.693Z,12.20
2023-05-14T03:56:59.422Z,12.20
2023-05-14T03:59:26.150Z,12.20
2023-05-14T04:01:52.845Z,12.10
2023-05-14T04:04:19.646Z,12.20
2023-05-14T04:06:46.389Z,12.10
2023-05-14T04:09:13.154Z,12.10
2023-05-14T04:11:39.960Z,12.10
2023-05-14T04:14:06.825Z,12.10
2023-05-14T04:16:33.596Z,12.10
2023-05-14T04:19:03.812Z,12.10
2023-05-14T04:21:30.660Z,12.10
2023-05-14T04:23:57.372Z,12.10
2023-05-14T04:26:24.142Z,12.10
2023-05-14T04:28:50.989Z,12.10
2023-05-14T04:31:17.736Z,12.10
2023-05-14T04:33:44.545Z,12.10
2023-05-14T04:36:11.244Z,12.20
2023-05-14T04:38:37.926Z,12.20
2023-05-14T04:41:04.988Z,12.10
2023-05-14T04:43:31.732Z,12.10
2023-05-14T04:45:58.482Z,12.10
2023-05-14T04:48:25.397Z,12.10
2023-05-14T04:50:52.240Z,12.10
2023-05-14T04:53:19.032Z,12.10
2023-05-14T04:55:45.796Z,12.10
2023-05-14T04:58:12.590Z,12.10
2023-05-14T05:00:40.091Z,12.10
2023-05-14T05:03:07.018Z,12.10
2023-05-14T05:05:33.809Z,12.10
2023-05-14T05:08:00.595Z,12.10
2023-05-14T05:10:27.354Z,12.10
2023-05-14T05:12:54.218Z,12.10
2023-05-14T05:15:20.956Z,12.10
2023-05-14T05:17:47.783Z,12.10
2023-05-14T05:20:14.635Z,12.10
2023-05-14T05:22:41.534Z,12.10
2023-05-14T05:25:09.169Z,12.20
2023-05-14T05:27:35.981Z,12.20
2023-05-14T05:30:03.959Z,12.20
2023-05-14T05:32:31.180Z,12.20
2023-05-14T05:34:58.064Z,12.20
2023-05-14T05:37:24.817Z,12.20
2023-05-14T05:39:51.558Z,12.20
2023-05-14T05:42:18.351Z,12.20
2023-05-14T05:44:45.244Z,12.20
2023-05-14T05:47:12.220Z,12.20
2023-05-14T05:49:38.975Z,12.20
2023-05-14T05:52:05.749Z,12.20
2023-05-14T05:54:32.533Z,12.20
2023-05-14T05:56:59.448Z,12.20
2023-05-14T05:59:26.218Z,12.20
2023-05-14T06:01:53.170Z,12.30
2023-05-14T06:04:20.282Z,12.30
2023-05-14T06:06:47.107Z,12.30
2023-05-14T06:09:13.859Z,12.30
2023-05-14T06:11:40.605Z,12.30
2023-05-14T06:14:07.539Z,12.30
2023-05-14T06:16:34.467Z,12.40
2023-05-14T06:19:02.126Z,12.40
2023-05-14T06:21:28.988Z,12.40
2023-05-14T06:23:55.755Z,12.40
2023-05-14T06:26:23.456Z,12.40
2023-05-14T06:28:50.220Z,12.40
2023-05-14T06:31:16.945Z,12.40
2023-05-14T06:33:43.693Z,12.50
2023-05-14T06:36:10.850Z,12.50
2023-05-14T06:38:37.763Z,12.50
2023-05-14T06:41:04.503Z,12.50
2023-05-14T06:43:31.285Z,12.60
2023-05-14T06:45:58.113Z,12.60
2023-05-14T06:48:27.630Z,12.60
2023-05-14T06:50:54.876Z,12.60
2023-05-14T06:53:21.715Z,12.60
2023-05-14T06:55:48.987Z,12.60
2023-05-14T06:58:15.749Z,12.70
2023-05-14T07:00:42.866Z,12.70
2023-05-14T07:03:09.625Z,12.70
2023-05-14T07:05:36.356Z,12.70
2023-05-14T07:08:03.238Z,12.80
2023-05-14T07:10:30.989Z,12.80
2023-05-14T07:12:57.838Z,12.80
2023-05-14T07:15:24.571Z,12.80
2023-05-14T07:17:51.326Z,12.90
2023-05-14T07:20:18.120Z,12.90
2023-05-14T07:22:44.867Z,12.90
2023-05-14T07:25:11.738Z,12.90
2023-05-14T07:27:38.659Z,13.00
2023-05-14T07:30:06.208Z,13.00
2023-05-14T07:32:33.060Z,13.00
2023-05-14T07:34:59.833Z,13.00
2023-05-14T07:37:26.625Z,13.00
2023-05-14T07:39:53.975Z,13.00
2023-05-14T07:42:34.411Z,13.10
2023-05-14T07:45:01.759Z,13.10
2023-05-14T07:47:29.023Z,13.10
2023-05-14T07:49:56.826Z,13.20
2023-05-14T07:52:24.277Z,13.20
2023-05-14T07:54:51.825Z,13.20
2023-05-14T07:57:19.715Z,13.20
2023-05-14T07:59:48.035Z,13.20
2023-05-14T08:02:16.227Z,13.30
2023-05-14T08:04:43.132Z,13.40
2023-05-14T08:07:10.216Z,13.30
2023-05-14T08:09:37.137Z,13.40
2023-05-14T08:12:04.557Z,13.40
2023-05-14T08:14:31.327Z,13.40
2023-05-14T08:16:58.112Z,13.50
2023-05-14T08:19:27.314Z,13.50
2023-05-14T08:21:54.376Z,13.50
2023-05-14T08:24:21.454Z,13.50
2023-05-14T08:26:48.336Z,13.60
2023-05-14T08:29:16.533Z,13.60
2023-05-14T08:31:43.722Z,13.70
2023-05-14T08:34:10.771Z,13.70
2023-05-14T08:36:38.777Z,13.70
2023-05-14T08:39:07.721Z,13.80
2023-05-14T08:41:34.855Z,13.80
2023-05-14T08:44:15.636Z,13.90
2023-05-14T08:46:42.445Z,13.90
2023-05-14T08:49:30.870Z,14.00
2023-05-14T08:51:57.938Z,14.10
2023-05-14T08:54:26.394Z,14.20
2023-05-14T08:56:53.349Z,14.20
2023-05-14T08:59:20.449Z,14.40
2023-05-14T09:01:48.703Z,14.40
2023-05-14T09:04:23.576Z,14.30
2023-05-14T09:06:51.867Z,14.40
2023-05-14T09:09:18.695Z,14.50
2023-05-14T09:11:52.364Z,14.60
2023-05-14T09:14:19.272Z,14.60
2023-05-14T09:16:47.785Z,14.60
2023-05-14T09:19:15.919Z,14.70
2023-05-14T09:21:44.984Z,14.90
2023-05-14T09:24:22.247Z,15.00
2023-05-14T09:26:56.935Z,15.00
2023-05-14T09:29:28.502Z,15.00
2023-05-14T09:31:56.854Z,15.10
2023-05-14T09:34:25.489Z,15.30
2023-05-14T09:37:03.250Z,15.30
2023-05-14T09:39:30.761Z,15.50
2023-05-14T09:41:57.635Z,15.60
2023-05-14T09:44:24.899Z,15.60
2023-05-14T09:46:52.737Z,15.70
2023-05-14T09:49:19.713Z,15.80
2023-05-14T09:51:46.636Z,16.00
2023-05-14T09:54:13.436Z,16.10
2023-05-14T09:56:40.354Z,16.20
2023-05-14T09:59:07.062Z,16.30
2023-05-14T10:01:33.885Z,16.40
2023-05-14T10:04:03.816Z,16.50
2023-05-14T10:06:33.994Z,16.70
2023-05-14T10:09:04.004Z,16.70
2023-05-14T10:11:37.817Z,16.90
2023-05-14T10:14:18.213Z,17.10
2023-05-14T10:16:53.067Z,17.20
2023-05-14T10:19:24.384Z,17.20
2023-05-14T10:22:02.894Z,17.40
2023-05-14T10:24:29.932Z,17.50
2023-05-14T10:26:56.923Z,17.40
2023-05-14T10:29:32.976Z,17.50
2023-05-14T10:32:05.114Z,17.60
2023-05-14T10:34:40.701Z,17.60
2023-05-14T10:37:15.083Z,17.60
2023-05-14T10:39:47.107Z,17.70
2023-05-14T10:42:17.852Z,17.80
2023-05-14T10:44:50.663Z,17.70
2023-05-14T10:47:18.008Z,17.80
2023-05-14T10:49:45.954Z,18.00
2023-05-14T10:52:12.840Z,18.10
2023-05-14T10:54:39.618Z,18.10
2023-05-14T10:57:11.675Z,18.10
2023-05-14T10:59:41.989Z,18.30
2023-05-14T11:02:20.137Z,18.30
2023-05-14T11:05:17.686Z,18.40
2023-05-14T11:07:47.236Z,18.40
2023-05-14T11:10:19.051Z,18.50
2023-05-14T11:12:47.969Z,18.40
2023-05-14T11:15:17.067Z,18.60
2023-05-14T11:17:45.279Z,18.70
2023-05-14T11:20:12.537Z,18.80
2023-05-14T11:22:41.045Z,18.90
2023-05-14T11:25:09.107Z,19.00
2023-05-14T11:27:38.155Z,19.10
2023-05-14T11:30:05.525Z,19.30
2023-05-14T11:32:32.698Z,19.30
2023-05-14T11:34:59.500Z,19.50
2023-05-14T11:37:26.411Z,19.40
2023-05-14T11:39:55.088Z,19.60
2023-05-14T11:42:22.455Z,19.60
2023-05-14T11:44:53.846Z,19.60
2023-05-14T11:47:22.198Z,19.70
2023-05-14T11:49:49.463Z,19.80
2023-05-14T11:52:19.521Z,20.00
2023-05-14T11:54:47.652Z,20.00
2023-05-14T11:57:16.739Z,20.10
2023-05-14T11:59:43.761Z,20.20
2023-05-14T12:02:12.625Z,20.40
2023-05-14T12:04:39.796Z,20.50
2023-05-14T12:07:12.156Z,20.60
2023-05-14T12:09:45.015Z,20.60
2023-05-14T12:12:12.873Z,20.70
2023-05-14T12:14:41.664Z,20.90
2023-05-14T12:17:24.707Z,20.90
2023-05-14T12:19:52.207Z,21.00
2023-05-14T12:22:20.624Z,21.10
2023-05-14T12:24:57.447Z,21.20
2023-05-14T12:27:26.320Z,21.30
2023-05-14T12:30:20.684Z,21.40
2023-05-14T12:32:53.604Z,21.60
2023-05-14T12:35:21.583Z,21.70
2023-05-14T12:37:48.407Z,21.80
2023-05-14T12:40:15.356Z,21.80
2023-05-14T12:42:42.183Z,21.80
2023-05-14T12:45:09.188Z,22.00
2023-05-14T12:47:36.801Z,22.10
2023-05-14T12:50:04.394Z,22.10
2023-05-14T12:55:01.486Z,22.20
2023-05-14T12:57:29.745Z,22.40
2023-05-14T12:59:57.235Z,22.60
2023-05-14T13:02:23.986Z,22.60
2023-05-14T13:04:50.749Z,22.80
2023-05-14T13:07:17.858Z,23.10
2023-05-14T13:09:44.626Z,23.30
2023-05-14T13:12:11.417Z,23.40
2023-05-14T13:14:38.164Z,23.40
2023-05-14T13:17:05.425Z,23.40
2023-05-14T13:19:32.311Z,23.60
2023-05-14T13:21:59.135Z,23.70
2023-05-14T13:24:25.931Z,23.80
2023-05-14T13:26:52.742Z,23.90
2023-05-14T13:29:19.597Z,23.90
2023-05-14T13:31:46.325Z,24.00
2023-05-14T13:34:13.191Z,24.00
2023-05-14T13:36:40.707Z,24.10
2023-05-14T13:39:07.684Z,24.20
2023-05-14T13:41:35.700Z,24.20
2023-05-14T13:44:02.420Z,24.30
2023-05-14T13:46:29.309Z,24.50
2023-05-14T13:48:56.182Z,24.60
2023-05-14T13:51:23.604Z,24.70
2023-05-14T13:53:50.436Z,24.70
2023-05-14T13:56:17.127Z,24.80
2023-05-14T13:58:43.844Z,24.80
2023-05-14T14:01:10.895Z,24.80
2023-05-14T14:03:37.705Z,24.70
2023-05-14T14:06:04.521Z,24.60
2023-05-14T14:08:31.344Z,24.60
2023-05-14T14:10:58.113Z,24.70
2023-05-14T14:13:25.018Z,24.70
2023-05-14T14:15:51.918Z,24.70
2023-05-14T14:18:18.705Z,24.70
2023-05-14T14:20:45.430Z,24.80
2023-05-14T14:23:12.204Z,24.90
2023-05-14T14:25:38.987Z,24.90
2023-05-14T14:28:05.798Z,24.90
2023-05-14T14:30:32.934Z,24.90
2023-05-14T14:33:01.258Z,24.80
2023-05-14T14:35:28.304Z,24.80
2023-05-14T14:37:55.759Z,24.80
2023-05-14T14:40:23.983Z,24.80
2023-05-14T14:42:50.893Z,24.80
2023-05-14T14:45:17.959Z,24.80
2023-05-14T14:47:46.311Z,24.80
2023-05-14T14:50:13.599Z,24.80
2023-05-14T14:52:45.538Z,24.80
2023-05-14T14:55:12.982Z,24.90
2023-05-14T14:57:39.861Z,24.90
2023-05-14T15:00:07.331Z,24.90
2023-05-14T15:02:34.539Z,24.90
2023-05-14T15:05:01.559Z,25.00
2023-05-14T15:07:32.156Z,24.90
2023-05-14T15:09:58.963Z,24.70
2023-05-14T15:12:25.729Z,24.80
2023-05-14T15:14:52.460Z,24.70
2023-05-14T15:17:19.325Z,24.80
2023-05-14T15:19:46.184Z,24.90
2023-05-14T15:22:13.012Z,24.90
2023-05-14T15:24:39.762Z,25.00
2023-05-14T15:27:06.526Z,25.10
2023-05-14T15:29:33.301Z,24.90
2023-05-14T15:32:00.212Z,25.10
2023-05-14T15:34:27.081Z,25.20
2023-05-14T15:36:53.868Z,25.20
2023-05-14T15:39:20.568Z,25.10
2023-05-14T15:41:47.297Z,25.00
2023-05-14T15:44:14.122Z,25.20
2023-05-14T15:46:40.925Z,25.30
2023-05-14T15:49:07.673Z,25.10
2023-05-14T15:51:34.533Z,25.10
2023-05-14T15:54:01.330Z,24.90
2023-05-14T15:56:28.101Z,24.90
2023-05-14T15:58:55.060Z,25.00
2023-05-14T16:01:22.039Z,25.00
2023-05-14T16:03:48.974Z,24.80
2023-05-14T16:06:16.055Z,25.30
2023-05-14T16:08:42.804Z,25.20
2023-05-14T16:11:09.550Z,25.00
2023-05-14T16:13:38.074Z,25.10
2023-05-14T16:16:05.281Z,25.20
2023-05-14T16:18:33.392Z,25.20
2023-05-14T16:21:00.252Z,25.10
2023-05-14T16:23:27.340Z,25.20
2023-05-14T16:25:54.081Z,25.70
2023-05-14T16:28:20.973Z,25.70
2023-05-14T16:30:47.724Z,25.60
2023-05-14T16:33:14.582Z,25.60
2023-05-14T16:35:41.410Z,25.60
2023-05-14T16:38:08.192Z,25.80
2023-05-14T16:40:34.932Z,25.80
2023-05-14T16:43:01.877Z,25.60
2023-05-14T16:45:28.849Z,25.80
2023-05-14T16:47:55.784Z,26.10
2023-05-14T16:50:22.639Z,26.10
2023-05-14T16:52:49.799Z,26.00
2023-05-14T16:55:17.227Z,26.30
2023-05-14T16:57:44.301Z,26.00
2023-05-14T17:00:11.968Z,25.90
2023-05-14T17:02:39.104Z,25.80
2023-05-14T17:05:07.034Z,25.70
2023-05-14T17:07:33.944Z,25.50
2023-05-14T17:10:01.223Z,25.50
2023-05-14T17:12:28.269Z,25.30
2023-05-14T17:14:55.092Z,25.30
2023-05-14T17:17:22.156Z,25.30
2023-05-14T17:19:48.952Z,25.30
2023-05-14T17:22:16.002Z,25.00
2023-05-14T17:24:42.956Z,24.90
2023-05-14T17:27:09.947Z,24.90
2023-05-14T17:29:36.758Z,24.60
2023-05-14T17:32:03.852Z,24.70
2023-05-14T17:34:30.828Z,24.50
2023-05-14T17:36:57.940Z,24.20
2023-05-14T17:39:24.654Z,24.10
2023-05-14T17:41:51.486Z,23.90
2023-05-14T17:44:18.386Z,23.80
2023-05-14T17:46:45.881Z,23.70
2023-05-14T17:49:12.837Z,23.90
2023-05-14T17:51:39.717Z,23.80
2023-05-14T17:54:06.556Z,23.90
2023-05-14T17:56:33.609Z,23.90
2023-05-14T17:59:00.481Z,23.70
2023-05-14T18:01:27.318Z,23.60
2023-05-14T18:03:54.176Z,23.60
2023-05-14T18:06:21.037Z,23.40
2023-05-14T18:08:47.791Z,23.30
2023-05-14T18:11:14.518Z,23.30
2023-05-14T18:13:41.302Z,23.10
2023-05-14T18:16:08.392Z,23.00
2023-05-14T18:18:35.650Z,23.10
2023-05-14T18:21:02.636Z,22.90
2023-05-14T18:23:29.369Z,22.90
2023-05-14T18:25:56.267Z,22.90
2023-05-14T18:28:23.202Z,22.90
2023-05-14T18:30:50.100Z,22.90
2023-05-14T18:33:17.112Z,22.80
2023-05-14T18:35:43.961Z,22.70
2023-05-14T18:38:11.931Z,22.70
2023-05-14T18:40:38.700Z,22.70
2023-05-14T18:43:05.741Z,22.50
2023-05-14T18:45:32.527Z,22.30
2023-05-14T18:47:59.366Z,22.00
2023-05-14T18:50:26.303Z,21.90
2023-05-14T18:52:53.064Z,21.60
2023-05-14T18:55:20.048Z,21.60
2023-05-14T18:57:46.844Z,21.70
2023-05-14T19:00:14.329Z,21.70
2023-05-14T19:02:41.551Z,21.70
2023-05-14T19:05:08.563Z,21.70
2023-05-14T19:07:37.333Z,21.30
2023-05-14T19:10:05.144Z,21.10
2023-05-14T19:12:31.940Z,21.10
2023-05-14T19:14:58.733Z,20.80
2023-05-14T19:17:25.710Z,20.80
2023-05-14T19:19:52.660Z,20.80
2023-05-14T19:22:19.553Z,20.90
2023-05-14T19:24:46.376Z,20.70
2023-05-14T19:27:16.329Z,20.70
2023-05-14T19:29:43.951Z,20.70
2023-05-14T19:32:11.174Z,20.80
2023-05-14T19:34:37.972Z,20.50
2023-05-14T19:37:05.391Z,20.30
2023-05-14T19:39:32.153Z,20.30
2023-05-14T19:41:58.950Z,20.30
2023-05-14T19:44:25.808Z,20.40
2023-05-14T19:46:52.716Z,20.20
2023-05-14T19:49:19.655Z,20.10
2023-05-14T19:51:46.506Z,20.00
2023-05-14T19:54:13.329Z,20.00
2023-05-14T19:56:40.300Z,19.90
2023-05-14T19:59:07.132Z,20.00
2023-05-14T20:01:34.845Z,19.90
2023-05-14T20:04:02.312Z,19.80
2023-05-14T20:06:29.465Z,19.70
2023-05-14T20:08:56.355Z,19.60
2023-05-14T20:11:23.142Z,19.50
2023-05-14T20:13:49.905Z,19.40
2023-05-14T20:16:16.970Z,19.40
2023-05-14T20:18:44.307Z,19.30
2023-05-14T20:21:11.342Z,19.30
2023-05-14T20:23:38.134Z,19.20
2023-05-14T20:26:05.012Z,19.00
2023-05-14T20:28:31.809Z,18.90
2023-05-14T20:30:59.091Z,18.70
2023-05-14T20:33:27.039Z,18.60
2023-05-14T20:35:53.921Z,18.60
2023-05-14T20:38:21.898Z,18.50
2023-05-14T20:40:48.708Z,18.40
2023-05-14T20:43:15.501Z,18.30
2023-05-14T20:45:42.252Z,18.10
2023-05-14T20:48:11.417Z,18.20
2023-05-14T20:50:38.328Z,18.00
2023-05-14T20:53:05.248Z,17.90
2023-05-14T20:55:32.072Z,17.80
2023-05-14T20:57:59.024Z,17.90
2023-05-14T21:00:25.988Z,17.70
2023-05-14T21:02:53.257Z,17.70
2023-05-14T21:05:20.854Z,17.50
2023-05-14T21:07:47.972Z,17.50
2023-05-14T21:10:14.869Z,17.30
2023-05-14T21:12:42.745Z,17.20
2023-05-14T21:15:10.637Z,17.10
2023-05-14T21:17:37.469Z,17.20
2023-05-14T21:20:04.521Z,17.10
2023-05-14T21:22:31.322Z,17.20
2023-05-14T21:24:58.056Z,17.20
2023-05-14T21:27:24.909Z,16.90
2023-05-14T21:29:51.857Z,16.80
2023-05-14T21:32:20.167Z,16.80
2023-05-14T21:34:47.130Z,16.80
2023-05-14T21:37:13.911Z,16.60
2023-05-14T21:39:40.893Z,16.50
2023-05-14T21:42:08.150Z,16.50
2023-05-14T21:44:34.970Z,16.50
2023-05-14T21:47:01.927Z,16.40
2023-05-14T21:49:28.716Z,16.30
2023-05-14T21:51:55.609Z,16.10
2023-05-14T21:54:22.365Z,15.80
2023-05-14T21:56:49.346Z,15.50
2023-05-14T21:59:16.167Z,15.10
2023-05-14T22:02:04.867Z,14.70
2023-05-14T22:04:29.861Z,14.80
2023-05-14T22:06:56.639Z,14.90
2023-05-14T22:09:23.498Z,15.00
2023-05-14T22:11:50.242Z,15.00
2023-05-14T22:14:17.273Z,14.90
2023-05-14T22:16:44.164Z,14.90
2023-05-14T22:19:11.429Z,14.70
2023-05-14T22:21:38.230Z,14.60
2023-05-14T22:24:05.284Z,14.40
2023-05-14T22:26:32.030Z,14.40
2023-05-14T22:28:58.820Z,14.60
2023-05-14T22:31:25.721Z,14.80
2023-05-14T22:33:52.998Z,14.70
2023-05-14T22:36:19.784Z,14.70
2023-05-14T22:38:46.513Z,14.80
2023-05-14T22:41:13.372Z,14.80
2023-05-14T22:43:40.198Z,14.60
2023-05-14T22:46:06.949Z,14.30
2023-05-14T22:48:33.700Z,14.40
2023-05-14T22:51:00.526Z,14.50
2023-05-14T22:53:27.352Z,14.30
2023-05-14T22:55:54.109Z,14.30
2023-05-14T22:58:20.858Z,14.10
2023-05-14T23:00:47.648Z,14.00
2023-05-14T23:03:14.384Z,13.70
2023-05-14T23:05:41.156Z,13.60
2023-05-14T23:08:07.989Z,13.80
2023-05-14T23:10:35.606Z,13.90
2023-05-14T23:13:04.395Z,13.90
2023-05-14T23:15:31.338Z,13.90
2023-05-14T23:17:58.279Z,13.90
2023-05-14T23:20:25.200Z,13.80
2023-05-14T23:22:52.420Z,13.80
2023-05-14T23:25:19.240Z,13.70
2023-05-14T23:27:46.185Z,13.60
2023-05-14T23:30:13.242Z,13.60
2023-05-14T23:32:40.078Z,13.50
2023-05-14T23:35:07.262Z,13.30
2023-05-14T23:37:35.754Z,13.20
2023-05-14T23:40:02.687Z,13.20
2023-05-14T23:42:29.464Z,13.00
2023-05-14T23:44:56.166Z,13.00
2023-05-14T23:47:22.966Z,12.70
2023-05-14T23:49:49.805Z,12.70
2023-05-14T23:52:16.530Z,12.60
2023-05-14T23:54:43.342Z,12.60
2023-05-14T23:57:13.009Z,12.60
2023-05-14T23:59:40.976Z,12.50
